Time;durP1;ratioP1;P1;durP2;ratioP2;P2;SDS_P1;SDS_P2;PMS_P1;PMS_P2;Temp;Humidity;BMP_temperature;BMP_pressure;BME280_temperature;BME280_humidity;BME280_pressure;Samples;Min_cycle;Max_cycle;Signal;HPM_P1;HPM_P2
2024/01/29 00:00:30;;;;;;;;;;;32.00;99.90;;;;;;5113833;28;20618;-69
2024/01/29 00:02:57;;;;;;;;;;;32.10;99.90;;;;;;5121905;27;20260;-71
2024/01/29 00:08:56;;;;;;;4.88;2.13;;;33.10;99.90;;;;;;5111886;28;20217;-69
2024/01/29 00:11:24;;;;;;;;;;;33.20;99.90;;;;;;5095574;28;20198;-69
2024/01/29 00:13:52;;;;;;;;;;;33.30;99.90;;;;;;5113924;28;20171;-69
2024/01/29 00:16:19;;;;;;;;;;;33.40;99.90;;;;;;5114383;28;20170;-70
2024/01/29 00:18:46;;;;;;;21.15;2.63;;;33.30;99.90;;;;;;5113746;28;20234;-70
2024/01/29 00:21:14;;;;;;;10.25;2.42;;;32.70;99.90;;;;;;5113539;28;20166;-70
2024/01/29 00:23:41;;;;;;;5.53;1.90;;;33.00;99.90;;;;;;5113810;28;20183;-69
2024/01/29 00:26:08;;;;;;;7.20;1.90;;;32.70;99.90;;;;;;5113263;28;20662;-70
2024/01/29 00:28:35;;;;;;;5.00;2.17;;;32.60;99.90;;;;;;5113529;28;20641;-70
2024/01/29 00:31:03;;;;;;;7.22;2.45;;;33.10;99.90;;;;;;5113675;28;20544;-69
2024/01/29 00:33:30;;;;;;;5.72;2.25;;;33.00;99.90;;;;;;5113430;28;20186;-69
2024/01/29 00:35:57;;;;;;;5.28;1.88;;;32.50;99.90;;;;;;5113392;28;20171;-69
2024/01/29 00:38:25;;;;;;;9.25;1.92;;;32.00;99.90;;;;;;5113779;28;20230;-69
2024/01/29 00:40:52;;;;;;;9.65;2.13;;;32.30;99.90;;;;;;5112975;28;20179;-69
2024/01/29 00:43:19;;;;;;;6.03;2.22;;;33.20;99.90;;;;;;5113335;28;20171;-70
2024/01/29 00:45:47;;;;;;;8.38;2.40;;;33.60;99.90;;;;;;5113654;28;20167;-69
2024/01/29 00:48:14;;;;;;;7.38;2.22;;;33.20;99.90;;;;;;5095298;28;20174;-70
2024/01/29 00:50:42;;;;;;;3.60;1.73;;;32.80;99.90;;;;;;5112370;28;20243;-70
2024/01/29 00:53:09;;;;;;;4.80;1.75;;;33.10;99.90;;;;;;5113326;28;20175;-70
2024/01/29 00:55:36;;;;;;;12.88;2.65;;;33.60;99.90;;;;;;5112994;28;20316;-70
2024/01/29 00:58:05;;;;;;;4.50;1.90;;;33.20;99.90;;;;;;5112390;28;20194;-70
2024/01/29 01:00:32;;;;;;;7.85;2.40;;;33.40;99.90;;;;;;5112601;28;20194;-69
2024/01/29 01:09:44;;;;;;;7.35;2.03;;;33.90;99.90;;;;;;5108543;28;20239;-70
2024/01/29 01:12:11;;;;;;;8.30;2.72;;;33.60;99.90;;;;;;5111950;28;20183;-70
2024/01/29 01:14:38;;;;;;;6.63;2.22;;;33.80;99.90;;;;;;5112588;28;20182;-69
2024/01/29 01:17:05;;;;;;;4.35;1.63;;;34.70;99.90;;;;;;5112402;28;20629;-70
2024/01/29 01:19:33;;;;;;;5.38;1.70;;;35.20;99.90;;;;;;5112145;28;20218;-69
2024/01/29 01:22:00;;;;;;;5.95;1.52;;;34.60;99.90;;;;;;5112953;28;20197;-70
2024/01/29 01:24:27;;;;;;;7.25;1.88;;;34.90;99.90;;;;;;5112985;28;20205;-72
2024/01/29 01:26:55;;;;;;;10.02;2.28;;;35.20;99.90;;;;;;5112296;28;20175;-71
2024/01/29 01:29:22;;;;;;;6.82;2.20;;;35.90;99.90;;;;;;5112355;28;20178;-70
2024/01/29 01:31:49;;;;;;;4.47;1.80;;;35.90;96.40;;;;;;5112071;28;20762;-70
2024/01/29 01:34:17;;;;;;;8.27;2.05;;;35.80;98.90;;;;;;5111715;28;20704;-70
2024/01/29 01:36:44;;;;;;;5.80;1.83;;;35.80;97.30;;;;;;5111780;28;20192;-69
2024/01/29 01:39:11;;;;;;;11.27;2.05;;;35.70;97.80;;;;;;5112343;28;20256;-70
2024/01/29 01:41:38;;;;;;;6.93;2.25;;;35.70;96.30;;;;;;5111337;28;20199;-70
2024/01/29 01:47:28;;;;;;;5.50;2.20;;;35.50;99.90;;;;;;5111875;28;20255;-69
2024/01/29 01:49:55;;;;;;;6.55;2.10;;;35.60;98.60;;;;;;5112130;28;20202;-70
2024/01/29 01:52:23;;;;;;;9.20;2.38;;;35.80;97.00;;;;;;5112336;28;20900;-69
2024/01/29 01:54:53;;;;;;;5.50;2.10;;;35.60;96.30;;;;;;5112473;28;20170;-70
2024/01/29 02:00:42;;;;;;;3.53;1.80;;;35.30;99.90;;;;;;5112014;28;20251;-71
2024/01/29 02:03:09;;;;;;;4.95;2.03;;;35.20;99.90;;;;;;5111688;27;20709;-68
2024/01/29 02:05:37;;;;;;;6.70;2.08;;;35.40;99.90;;;;;;5107768;28;20244;-69
2024/01/29 02:08:05;;;;;;;9.75;1.90;;;35.60;97.50;;;;;;5092014;28;20175;-70
2024/01/29 02:10:32;;;;;;;6.60;1.95;;;35.20;99.90;;;;;;5091983;28;20178;-70
2024/01/29 02:13:00;;;;;;;5.68;2.00;;;35.60;99.90;;;;;;5091230;28;20560;-70
2024/01/29 02:15:27;;;;;;;8.15;2.30;;;36.20;99.30;;;;;;5106371;28;20661;-70
2024/01/29 02:17:54;;;;;;;4.20;2.10;;;36.10;94.40;;;;;;5111572;28;20230;-70
2024/01/29 02:20:22;;;;;;;8.07;1.88;;;36.20;93.50;;;;;;5111099;28;20256;-70
2024/01/29 02:23:05;;;;;;;4.93;1.75;;;35.90;96.60;;;;;;5111786;28;20261;-70
2024/01/29 02:25:33;;;;;;;6.70;1.92;;;36.00;97.90;;;;;;5111664;28;20185;-70
2024/01/29 02:28:01;;;;;;;6.13;2.15;;;36.10;95.10;;;;;;5111386;28;20228;-70
2024/01/29 02:30:28;;;;;;;7.35;2.17;;;36.00;95.00;;;;;;5111996;28;20664;-71
2024/01/29 02:39:39;;;;;;;6.25;2.25;;;35.80;99.90;;;;;;5111148;28;20730;-69
2024/01/29 02:42:07;;;;;;;7.13;1.95;;;35.60;99.90;;;;;;5110961;28;20645;-69
2024/01/29 02:44:34;;;;;;;6.13;2.00;;;35.70;99.90;;;;;;5111143;28;20247;-69
2024/01/29 02:47:01;;;;;;;4.72;1.40;;;35.80;99.90;;;;;;5111444;28;20239;-69
2024/01/29 02:49:29;;;;;;;5.13;2.25;;;35.90;99.90;;;;;;5112891;28;20174;-69
2024/01/29 02:51:56;;;;;;;7.95;2.20;;;35.40;99.90;;;;;;5113304;28;20175;-69
2024/01/29 02:54:23;;;;;;;5.68;1.85;;;35.60;99.90;;;;;;5113363;28;20174;-69
2024/01/29 02:56:50;;;;;;;7.20;2.03;;;36.00;99.90;;;;;;5113027;28;20179;-69
2024/01/29 02:59:18;;;;;;;5.93;2.33;;;36.30;99.90;;;;;;5112579;28;20567;-70
2024/01/29 03:01:45;;;;;;;6.65;2.20;;;36.60;98.80;;;;;;5094690;28;20178;-69
2024/01/29 03:04:12;;;;;;;6.43;1.95;;;36.40;95.30;;;;;;5113068;28;20535;-70
2024/01/29 03:06:40;;;;;;;3.97;1.80;;;36.30;97.20;;;;;;5112698;28;20175;-69
2024/01/29 03:09:07;;;;;;;5.22;1.95;;;35.90;99.90;;;;;;5094569;28;20234;-69
2024/01/29 03:11:35;;;;;;;6.95;2.42;;;36.20;97.40;;;;;;5113199;28;20174;-69
2024/01/29 03:14:02;;;;;;;5.05;1.83;;;36.30;99.90;;;;;;5112748;28;20537;-69
2024/01/29 03:16:29;;;;;;;4.60;1.83;;;36.80;97.20;;;;;;5094443;28;20645;-70
2024/01/29 03:18:56;;;;;;;6.38;1.90;;;36.70;93.40;;;;;;5112589;28;20682;-68
2024/01/29 03:21:26;;;;;;;5.15;2.20;;;36.80;93.80;;;;;;5110559;28;20166;-70
2024/01/29 03:23:53;;;;;;;9.18;2.47;;;36.50;99.80;;;;;;5110930;28;20182;-72
2024/01/29 03:26:20;;;;;;;8.15;2.25;;;36.20;99.90;;;;;;5111139;28;20178;-68
2024/01/29 03:28:48;;;;;;;10.35;3.00;;;36.70;99.90;;;;;;5111074;28;20549;-71
2024/01/29 03:31:16;;;;;;;12.15;2.55;;;36.50;99.90;;;;;;5111754;28;20178;-72
2024/01/29 03:33:43;;;;;;;12.52;2.65;;;36.60;99.90;;;;;;5115116;28;20661;-69
2024/01/29 03:36:11;;;;;;;8.60;2.28;;;36.50;99.90;;;;;;5114264;28;20649;-70
2024/01/29 03:39:06;;;;;;;11.38;3.65;;;36.20;99.90;;;;;;5114234;28;20221;-70
2024/01/29 03:41:34;;;;;;;7.28;2.47;;;36.20;99.90;;;;;;5115150;28;20170;-70
2024/01/29 03:44:01;;;;;;;14.48;2.85;;;36.30;99.90;;;;;;5114216;28;20543;-70
2024/01/29 03:46:28;;;;;;;19.25;3.13;;;35.20;99.90;;;;;;5114722;28;20269;-73
2024/01/29 03:48:56;;;;;;;13.27;3.20;;;34.80;99.90;;;;;;5114819;28;20182;-70
2024/01/29 03:51:23;;;;;;;11.82;3.45;;;34.90;99.90;;;;;;5114503;28;20178;-70
2024/01/29 03:53:50;;;;;;;13.55;3.10;;;34.70;99.90;;;;;;5113914;28;20528;-75
2024/01/29 03:56:18;;;;;;;10.15;3.13;;;34.70;99.90;;;;;;5113933;28;20189;-72
2024/01/29 03:58:45;;;;;;;13.15;3.00;;;34.90;99.90;;;;;;5113443;28;20298;-70
2024/01/29 04:01:13;;;;;;;7.03;2.42;;;35.20;99.90;;;;;;5114629;28;20170;-72
2024/01/29 04:03:40;;;;;;;9.43;2.60;;;35.60;99.90;;;;;;5099588;28;21070;-69
2024/01/29 04:06:08;;;;;;;9.85;2.95;;;35.80;99.90;;;;;;5106931;28;20212;-70
2024/01/29 04:08:35;;;;;;;10.73;3.22;;;35.20;99.90;;;;;;5113438;28;20186;-68
2024/01/29 04:11:02;;;;;;;12.10;3.15;;;35.00;99.90;;;;;;5113787;28;20189;-69
2024/01/29 04:13:30;;;;;;;15.95;2.92;;;35.40;99.90;;;;;;5113323;28;20680;-70
2024/01/29 04:15:57;;;;;;;16.13;3.20;;;35.50;99.90;;;;;;5113463;28;20201;-71
2024/01/29 04:18:24;;;;;;;12.32;3.30;;;35.50;99.90;;;;;;5113862;28;20242;-70
2024/01/29 04:20:52;;;;;;;11.65;3.60;;;35.60;99.90;;;;;;5113238;28;20308;-69
2024/01/29 04:23:19;;;;;;;12.85;3.08;;;36.10;99.90;;;;;;5113899;28;20202;-70
2024/01/29 04:25:47;;;;;;;16.58;3.35;;;35.90;99.90;;;;;;5113758;28;20223;-69
2024/01/29 04:28:14;;;;;;;11.60;2.85;;;35.70;99.90;;;;;;5113169;28;20178;-70
2024/01/29 04:30:42;;;;;;;19.05;3.65;;;35.70;99.90;;;;;;5113672;28;20327;-69
2024/01/29 04:33:09;;;;;;;12.65;3.42;;;35.70;99.90;;;;;;5113303;28;20261;-69
2024/01/29 04:35:37;;;;;;;11.15;3.30;;;35.60;99.90;;;;;;5113537;28;20569;-69
2024/01/29 04:38:04;;;;;;;13.77;3.03;;;35.10;99.90;;;;;;5113402;28;20570;-70
2024/01/29 04:40:33;;;;;;;14.18;3.25;;;35.40;99.90;;;;;;5113254;28;21034;-70
2024/01/29 04:43:00;;;;;;;10.48;3.05;;;35.60;99.90;;;;;;5112404;28;20193;-70
2024/01/29 04:45:27;;;;;;;18.52;4.07;;;35.90;99.90;;;;;;5112864;28;20273;-69
2024/01/29 04:47:55;;;;;;;11.82;2.92;;;35.60;99.90;;;;;;5113061;28;20247;-70
2024/01/29 04:50:22;;;;;;;16.05;2.83;;;35.10;99.90;;;;;;5112891;28;20538;-69
2024/01/29 04:52:50;;;;;;;16.95;3.35;;;35.40;99.90;;;;;;5112549;28;20722;-69
2024/01/29 04:55:17;;;;;;;13.40;2.47;;;35.50;99.90;;;;;;5112880;28;20186;-71
2024/01/29 04:57:44;;;;;;;13.70;3.63;;;35.20;99.90;;;;;;5112690;28;20167;-69
2024/01/29 05:00:12;;;;;;;10.63;3.70;;;35.50;99.90;;;;;;5112810;28;20179;-69
2024/01/29 05:02:40;;;;;;;11.20;2.75;;;35.20;99.90;;;;;;5113043;28;20194;-70
2024/01/29 05:05:07;;;;;;;11.80;3.15;;;35.10;99.90;;;;;;5093869;28;20522;-68
2024/01/29 05:07:34;;;;;;;11.27;3.08;;;35.20;99.90;;;;;;5113102;28;20230;-69
2024/01/29 05:10:02;;;;;;;17.20;3.38;;;35.20;99.90;;;;;;5112647;28;20187;-68
2024/01/29 05:12:30;;;;;;;13.07;2.78;;;35.30;99.90;;;;;;5112533;28;20649;-69
2024/01/29 05:18:20;;;;;;;14.82;3.00;;;34.80;99.90;;;;;;5111560;28;20332;-69
2024/01/29 05:20:47;;;;;;;11.90;3.10;;;34.80;99.90;;;;;;5112916;28;20187;-70
2024/01/29 05:23:15;;;;;;;10.43;3.13;;;34.90;99.90;;;;;;5112962;28;20179;-68
2024/01/29 05:25:42;;;;;;;13.48;3.38;;;34.70;99.90;;;;;;5112015;28;20170;-68
2024/01/29 05:28:09;;;;;;;11.75;3.22;;;34.50;99.90;;;;;;5112237;28;20206;-69
2024/01/29 05:30:36;;;;;;;11.23;3.22;;;34.40;99.90;;;;;;5112819;28;20206;-69
2024/01/29 05:33:04;;;;;;;13.40;2.95;;;34.30;99.90;;;;;;5112183;28;20179;-68
2024/01/29 05:35:31;;;;;;;12.43;2.90;;;34.50;99.90;;;;;;5112279;28;20769;-69
2024/01/29 05:37:58;;;;;;;14.43;3.53;;;34.50;99.90;;;;;;5112405;28;20558;-69
2024/01/29 05:40:26;;;;;;;10.35;2.67;;;34.30;99.90;;;;;;5112042;28;20581;-69
2024/01/29 05:42:53;;;;;;;11.30;3.03;;;34.40;99.90;;;;;;5112417;28;20183;-69
2024/01/29 05:45:21;;;;;;;13.48;3.33;;;34.10;99.90;;;;;;5112132;28;20651;-69
2024/01/29 05:47:48;;;;;;;11.43;3.17;;;33.90;99.90;;;;;;5112096;28;20178;-70
2024/01/29 05:50:16;;;;;;;13.68;2.95;;;33.80;99.90;;;;;;5112213;28;20223;-69
2024/01/29 05:52:43;;;;;;;8.95;2.95;;;33.80;99.90;;;;;;5091701;28;20586;-69
2024/01/29 05:55:11;;;;;;;15.50;3.17;;;33.70;99.90;;;;;;5107278;28;20216;-69
2024/01/29 05:57:38;;;;;;;15.60;3.33;;;33.60;99.90;;;;;;5112138;28;20175;-70
2024/01/29 06:00:10;;;;;;;14.27;2.95;;;33.40;99.90;;;;;;5112284;28;20178;-69
2024/01/29 06:02:43;;;;;;;16.25;3.60;;;33.40;99.90;;;;;;5111517;28;20182;-71
2024/01/29 06:05:11;;;;;;;11.50;3.75;;;33.40;99.90;;;;;;5111437;28;20194;-71
2024/01/29 06:07:42;;;;;;;11.88;3.45;;;33.40;99.90;;;;;;5111433;28;20174;-69
2024/01/29 06:10:12;;;;;;;13.18;2.75;;;33.40;99.90;;;;;;5111533;28;20178;-70
2024/01/29 06:12:39;;;;;;;14.40;3.38;;;33.60;99.90;;;;;;5111910;28;20193;-70
2024/01/29 06:15:07;;;;;;;15.07;3.78;;;33.50;99.90;;;;;;5111627;28;20269;-71
2024/01/29 06:17:34;;;;;;;13.88;3.20;;;33.20;99.90;;;;;;5111553;28;20263;-70
2024/01/29 06:20:02;;;;;;;15.43;3.03;;;33.10;99.90;;;;;;5111732;28;20198;-70
2024/01/29 06:22:30;;;;;;;11.82;3.30;;;33.20;99.90;;;;;;5111593;28;20702;-70
2024/01/29 06:24:57;;;;;;;15.32;3.78;;;33.30;99.90;;;;;;5111258;28;20239;-70
2024/01/29 06:27:24;;;;;;;18.20;3.70;;;33.20;99.90;;;;;;5112012;28;20171;-71
2024/01/29 06:29:52;;;;;;;17.42;3.10;;;33.20;99.90;;;;;;5111911;28;20241;-70
2024/01/29 06:32:19;;;;;;;13.07;3.78;;;33.40;99.90;;;;;;5111485;28;20170;-69
2024/01/29 06:34:46;;;;;;;19.58;3.88;;;32.90;99.90;;;;;;5111389;28;20190;-69
2024/01/29 06:37:14;;;;;;;14.75;3.35;;;32.80;99.90;;;;;;5111997;28;20167;-68
2024/01/29 06:39:41;;;;;;;15.65;3.38;;;32.60;99.90;;;;;;5111238;28;20231;-68
2024/01/29 06:42:08;;;;;;;14.50;2.83;;;32.50;99.90;;;;;;5111944;28;20178;-69
2024/01/29 06:44:36;;;;;;;19.48;3.97;;;32.40;99.90;;;;;;5111394;28;20668;-68
2024/01/29 06:47:03;;;;;;;15.30;3.92;;;32.50;99.90;;;;;;5111327;28;20171;-69
2024/01/29 06:49:31;;;;;;;15.70;3.33;;;32.40;99.90;;;;;;5111413;28;20696;-68
2024/01/29 06:51:58;;;;;;;13.93;3.53;;;32.30;99.90;;;;;;5111219;28;20213;-70
2024/01/29 06:54:26;;;;;;;15.68;2.85;;;32.20;99.90;;;;;;5111101;28;20186;-69
2024/01/29 06:56:53;;;;;;;17.30;3.17;;;32.30;99.90;;;;;;5111122;28;20190;-70
2024/01/29 06:59:23;;;;;;;9.75;2.88;;;32.10;99.90;;;;;;5111396;28;20178;-70
2024/01/29 07:01:52;;;;;;;14.48;2.97;;;32.00;99.90;;;;;;5111241;28;20178;-69
2024/01/29 07:04:19;;;;;;;16.00;3.05;;;32.00;99.90;;;;;;5111273;28;20638;-70
2024/01/29 07:06:47;;;;;;;20.55;3.47;;;31.90;99.90;;;;;;5112289;28;20214;-72
2024/01/29 07:09:14;;;;;;;13.70;3.42;;;31.60;99.90;;;;;;5114601;28;20210;-71
2024/01/29 07:11:41;;;;;;;16.15;3.45;;;31.70;99.90;;;;;;5115349;28;20174;-69
2024/01/29 07:14:09;;;;;;;16.73;3.58;;;31.70;99.90;;;;;;5115301;28;20170;-69
2024/01/29 07:16:36;;;;;;;15.32;3.60;;;31.60;99.90;;;;;;5114793;28;20183;-68
2024/01/29 07:19:03;;;;;;;17.05;3.53;;;31.40;99.90;;;;;;5114719;28;20241;-69
2024/01/29 07:21:31;;;;;;;14.93;3.38;;;31.20;99.90;;;;;;5115422;28;20239;-70
2024/01/29 07:23:58;;;;;;;14.85;3.53;;;31.30;99.90;;;;;;5114719;28;20679;-68
2024/01/29 07:26:25;;;;;;;16.35;3.20;;;31.30;99.90;;;;;;5115215;28;20210;-70
2024/01/29 07:28:53;;;;;;;23.83;3.83;;;31.10;99.90;;;;;;5115211;28;20214;-70
2024/01/29 07:31:20;;;;;;;15.23;3.08;;;31.10;99.90;;;;;;5115087;28;20589;-70
2024/01/29 07:33:47;;;;;;;17.88;3.78;;;31.10;99.90;;;;;;5114911;28;20183;-70
2024/01/29 07:36:14;;;;;;;13.13;3.47;;;31.00;99.90;;;;;;5115083;28;20186;-71
2024/01/29 07:38:42;;;;;;;16.00;2.97;;;30.90;99.90;;;;;;5095773;28;20545;-69
2024/01/29 07:41:09;;;;;;;14.88;3.13;;;30.90;99.90;;;;;;5115019;28;20206;-69
2024/01/29 07:43:36;;;;;;;14.77;3.17;;;30.90;99.90;;;;;;5113961;28;20178;-69
2024/01/29 07:46:04;;;;;;;10.68;2.65;;;30.80;99.90;;;;;;5095068;28;20833;-70
2024/01/29 07:48:31;;;;;;;19.85;3.85;;;30.80;99.90;;;;;;5113849;28;20222;-69
2024/01/29 07:50:58;;;;;;;13.23;4.00;;;30.70;99.90;;;;;;5114251;28;20198;-70
2024/01/29 07:53:26;;;;;;;13.70;3.78;;;30.70;99.90;;;;;;5113879;28;20178;-70
2024/01/29 07:55:53;;;;;;;19.67;3.95;;;30.90;99.90;;;;;;5114643;28;20179;-69
2024/01/29 07:58:21;;;;;;;10.02;3.20;;;30.80;99.90;;;;;;5113606;28;20657;-68
2024/01/29 08:00:50;;;;;;;18.00;3.75;;;30.80;99.90;;;;;;5114087;28;20174;-70
2024/01/29 08:03:17;;;;;;;15.57;3.13;;;30.90;99.90;;;;;;5114370;28;20236;-70
2024/01/29 08:05:44;;;;;;;13.98;3.63;;;30.80;99.90;;;;;;5114193;28;20660;-70
2024/01/29 08:08:12;;;;;;;12.52;3.05;;;30.60;99.90;;;;;;5113977;28;20203;-69
2024/01/29 08:10:39;;;;;;;20.85;3.53;;;30.60;99.90;;;;;;5114829;28;20671;-71
2024/01/29 08:13:06;;;;;;;15.18;3.92;;;30.50;99.90;;;;;;5115619;28;20194;-69
2024/01/29 08:15:33;;;;;;;12.55;3.40;;;30.40;99.90;;;;;;5115520;28;20194;-70
2024/01/29 08:18:01;;;;;;;15.10;3.80;;;30.00;99.90;;;;;;5114470;28;20218;-70
2024/01/29 08:20:28;;;;;;;15.20;3.20;;;29.90;99.90;;;;;;5115085;28;20179;-69
2024/01/29 08:22:56;;;;;;;13.30;2.77;;;29.80;99.90;;;;;;5115636;28;20203;-69
2024/01/29 08:25:24;;;;;;;14.33;4.23;;;29.80;99.90;;;;;;5114907;28;20182;-69
2024/01/29 08:27:52;;;;;;;28.67;3.73;;;30.00;99.90;;;;;;5114873;28;20186;-69
2024/01/29 08:30:19;;;;;;;12.63;3.23;;;29.80;99.90;;;;;;5115168;28;20198;-69
2024/01/29 08:32:47;;;;;;;14.73;3.37;;;29.50;99.90;;;;;;5114937;28;20347;-68
2024/01/29 08:35:14;;;;;;;19.47;3.60;;;29.40;99.90;;;;;;5115228;28;20179;-68
2024/01/29 08:37:41;;;;;;;19.05;4.50;;;29.20;99.90;;;;;;5096876;28;20582;-69
2024/01/29 08:40:09;;;;;;;14.77;3.67;;;29.10;99.90;;;;;;5115111;28;20182;-70
2024/01/29 08:42:36;;;;;;;22.20;4.50;;;29.00;99.90;;;;;;5115188;28;20277;-69
2024/01/29 08:45:04;;;;;;;21.97;3.93;;;28.90;99.90;;;;;;5114637;28;20175;-69
2024/01/29 08:47:32;;;;;;;14.53;4.00;;;28.80;99.90;;;;;;5112269;28;20193;-73
2024/01/29 08:49:59;;;;;;;20.27;3.97;;;28.60;99.90;;;;;;5114340;28;20701;-70
2024/01/29 08:52:26;;;;;;;23.77;4.83;;;28.60;99.90;;;;;;5114447;28;20653;-70
2024/01/29 08:54:54;;;;;;;18.53;3.50;;;28.50;99.90;;;;;;5114520;28;20179;-69
2024/01/29 08:57:21;;;;;;;19.20;3.87;;;28.40;99.90;;;;;;5114456;28;20179;-70
2024/01/29 08:59:48;;;;;;;17.67;3.93;;;28.30;99.90;;;;;;5114863;28;20175;-70
2024/01/29 09:02:16;;;;;;;23.37;3.83;;;28.10;99.90;;;;;;5114475;28;20166;-71
2024/01/29 09:04:43;;;;;;;18.53;4.50;;;28.10;99.90;;;;;;5114473;28;20262;-69
2024/01/29 09:07:12;;;;;;;18.20;3.73;;;28.10;99.90;;;;;;5114469;28;20544;-70
2024/01/29 09:09:39;;;;;;;32.67;7.80;;;28.00;99.90;;;;;;5114317;28;20241;-72
2024/01/29 09:12:07;;;;;;;17.40;4.07;;;27.90;99.90;;;;;;5114084;28;20528;-69
2024/01/29 09:14:34;;;;;;;24.87;5.73;;;27.90;99.90;;;;;;5114630;28;20667;-70
2024/01/29 09:17:01;;;;;;;21.20;5.03;;;27.80;99.90;;;;;;5114493;28;20206;-70
2024/01/29 09:19:28;;;;;;;21.77;4.17;;;27.70;99.90;;;;;;5113643;28;20230;-68
2024/01/29 09:21:56;;;;;;;25.77;4.83;;;27.70;99.90;;;;;;5113998;28;20209;-71
2024/01/29 09:24:23;;;;;;;17.50;4.43;;;27.60;99.90;;;;;;5096288;28;20536;-72
2024/01/29 09:26:50;;;;;;;21.23;4.47;;;27.50;99.90;;;;;;5114167;28;20550;-72
2024/01/29 09:29:18;;;;;;;21.73;4.03;;;27.50;99.90;;;;;;5113651;28;20210;-70
2024/01/29 09:31:45;;;;;;;24.80;4.93;;;27.40;99.90;;;;;;5114529;28;20212;-69
2024/01/29 09:34:12;;;;;;;29.00;5.47;;;27.40;99.90;;;;;;5114395;28;20261;-70
2024/01/29 09:36:40;;;;;;;26.17;5.37;;;27.40;99.90;;;;;;5114174;28;20200;-70
2024/01/29 09:39:07;;;;;;;28.23;4.73;;;27.40;99.90;;;;;;5113997;28;20585;-70
2024/01/29 09:41:38;;;;;;;20.43;4.90;;;27.40;99.90;;;;;;5114310;28;20198;-71
2024/01/29 09:44:07;;;;;;;20.70;4.87;;;27.20;99.90;;;;;;5114105;28;20174;-69
2024/01/29 09:46:38;;;;;;;19.33;4.50;;;27.10;99.90;;;;;;5113931;28;20593;-70
2024/01/29 09:49:06;;;;;;;19.37;5.27;;;27.10;99.90;;;;;;5114336;28;20285;-70
2024/01/29 09:51:34;;;;;;;28.53;4.80;;;27.00;99.90;;;;;;5114115;28;20190;-70
2024/01/29 09:54:03;;;;;;;21.90;4.47;;;27.00;99.90;;;;;;5113783;28;20174;-68
2024/01/29 09:56:31;;;;;;;22.90;4.13;;;26.90;99.90;;;;;;5113950;28;20174;-69
2024/01/29 09:58:58;;;;;;;17.40;3.57;;;26.90;99.90;;;;;;5113350;28;20208;-70
2024/01/29 10:01:26;;;;;;;21.67;4.07;;;26.90;99.90;;;;;;5113728;28;20253;-71
2024/01/29 10:03:53;;;;;;;24.53;4.63;;;26.80;99.90;;;;;;5113824;28;20637;-67
2024/01/29 10:06:20;;;;;;;20.97;4.40;;;26.90;99.90;;;;;;5113803;28;20530;-69
2024/01/29 10:08:47;;;;;;;23.97;5.23;;;26.80;99.90;;;;;;5113840;28;20657;-71
2024/01/29 10:11:17;;;;;;;19.87;3.67;;;26.80;99.90;;;;;;5113737;28;20175;-69
2024/01/29 10:13:47;;;;;;;25.30;4.87;;;26.80;99.90;;;;;;5113546;28;20186;-70
2024/01/29 10:16:15;;;;;;;13.97;3.67;;;26.80;99.90;;;;;;5113453;28;20181;-70
2024/01/29 10:18:42;;;;;;;18.53;4.17;;;26.80;99.90;;;;;;5113227;28;20214;-68
2024/01/29 10:21:09;;;;;;;25.93;4.57;;;26.70;99.90;;;;;;5113757;28;20175;-69
2024/01/29 10:23:37;;;;;;;21.27;4.67;;;26.70;99.90;;;;;;5113532;28;20181;-70
2024/01/29 10:26:05;;;;;;;18.63;4.60;;;26.60;99.90;;;;;;5113341;28;20213;-70
2024/01/29 10:28:32;;;;;;;22.10;4.90;;;26.60;99.90;;;;;;5113990;28;20252;-68
2024/01/29 10:30:59;;;;;;;25.43;4.73;;;26.60;99.90;;;;;;5113481;28;20175;-69
2024/01/29 10:33:27;;;;;;;20.03;4.17;;;26.60;99.90;;;;;;5090063;28;20210;-69
2024/01/29 10:36:00;;;;;;;18.33;3.73;;;26.50;99.90;;;;;;5111755;28;20261;-68
2024/01/29 10:38:29;;;;;;;25.40;4.37;;;26.60;99.90;;;;;;5113032;28;20241;-70
2024/01/29 10:40:59;;;;;;;21.23;4.13;;;26.60;99.90;;;;;;5114576;28;20178;-70
2024/01/29 10:43:37;;;;;;;20.10;5.40;;;26.60;99.90;;;;;;5117517;28;20575;-69
2024/01/29 10:46:08;;;;;;;21.00;4.83;;;26.50;99.90;;;;;;5117573;28;20264;-70
2024/01/29 10:48:37;;;;;;;18.37;4.10;;;26.50;99.90;;;;;;5117592;28;20210;-69
2024/01/29 10:51:06;;;;;;;21.83;4.57;;;26.40;99.90;;;;;;5117610;28;20585;-70
2024/01/29 10:53:35;;;;;;;25.60;5.30;;;26.40;99.90;;;;;;5117228;28;20197;-68
2024/01/29 10:56:05;;;;;;;21.03;4.83;;;26.40;99.90;;;;;;5117468;28;20231;-74
2024/01/29 10:58:33;;;;;;;25.50;5.27;;;26.40;99.90;;;;;;5117061;28;20175;-72
2024/01/29 11:01:03;;;;;;;23.27;4.30;;;26.30;99.90;;;;;;5117490;28;20197;-69
2024/01/29 11:03:32;;;;;;;21.83;4.73;;;26.30;99.90;;;;;;5116838;28;20301;-68
2024/01/29 11:06:35;;;;;;;28.07;4.60;;;26.20;99.90;;;;;;5117166;28;20171;-70
2024/01/29 11:09:09;;;;;;;18.53;4.07;;;26.20;99.90;;;;;;5117289;28;20198;-70
2024/01/29 11:11:38;;;;;;;28.03;5.50;;;26.20;99.90;;;;;;5117207;28;20178;-69
2024/01/29 11:14:07;;;;;;;19.60;4.30;;;26.20;99.90;;;;;;5116962;28;20171;-69
2024/01/29 11:16:37;;;;;;;20.47;4.83;;;26.10;99.90;;;;;;5117064;28;20167;-70
2024/01/29 11:19:06;;;;;;;20.43;4.67;;;26.10;99.90;;;;;;5116472;28;20234;-70
2024/01/29 11:21:34;;;;;;;20.73;5.20;;;26.10;99.90;;;;;;5117039;28;20656;-70
2024/01/29 11:24:02;;;;;;;22.93;4.93;;;26.10;99.90;;;;;;5116771;28;20170;-68
2024/01/29 11:26:31;;;;;;;26.40;4.80;;;26.10;99.90;;;;;;5098631;28;20190;-68
2024/01/29 11:29:03;;;;;;;21.83;4.70;;;26.20;99.90;;;;;;5116669;28;20697;-69
2024/01/29 11:31:40;;;;;;;24.63;4.50;;;26.20;99.90;;;;;;5098286;28;20175;-70
2024/01/29 11:34:08;;;;;;;28.37;4.33;;;26.20;99.90;;;;;;5116682;28;20185;-69
2024/01/29 11:36:39;;;;;;;26.80;5.07;;;26.20;99.90;;;;;;5116737;28;20171;-70
2024/01/29 11:39:17;;;;;;;23.50;5.00;;;26.20;99.90;;;;;;5116473;28;20175;-70
2024/01/29 11:41:49;;;;;;;19.97;4.77;;;26.30;99.90;;;;;;5098308;28;20637;-71
2024/01/29 11:44:23;;;;;;;15.43;3.73;;;26.30;99.90;;;;;;5116327;28;20183;-70
2024/01/29 11:46:51;;;;;;;26.00;4.43;;;26.30;99.90;;;;;;5116623;28;20171;-70
2024/01/29 11:49:28;;;;;;;25.17;4.93;;;26.20;99.90;;;;;;5116163;28;20206;-70
2024/01/29 11:51:56;;;;;;;17.37;4.60;;;26.20;99.90;;;;;;5115758;28;20660;-70
2024/01/29 11:54:25;;;;;;;21.97;5.17;;;26.20;99.90;;;;;;5115884;28;20186;-70
2024/01/29 11:56:52;;;;;;;28.07;4.67;;;26.10;99.90;;;;;;5116382;28;20688;-68
2024/01/29 11:59:20;;;;;;;26.03;4.60;;;26.10;99.90;;;;;;5115718;28;20178;-71
2024/01/29 12:01:50;;;;;;;26.90;5.47;;;26.00;99.90;;;;;;5115442;28;20186;-68
2024/01/29 12:04:18;;;;;;;23.67;4.93;;;26.00;99.90;;;;;;5115448;28;20185;-70
2024/01/29 12:06:51;;;;;;;23.37;4.90;;;25.90;99.90;;;;;;5115416;28;20231;-68
2024/01/29 12:09:19;;;;;;;22.40;4.63;;;25.90;99.90;;;;;;5115267;28;20755;-69
2024/01/29 12:11:47;;;;;;;23.47;5.20;;;25.90;99.90;;;;;;5115222;28;20177;-68
2024/01/29 12:14:15;;;;;;;28.17;4.83;;;25.80;99.90;;;;;;5097884;28;20181;-68
2024/01/29 12:16:43;;;;;;;27.93;5.10;;;25.80;99.90;;;;;;5115350;28;20187;-69
2024/01/29 12:19:10;;;;;;;23.37;4.50;;;25.80;99.90;;;;;;5114157;28;20218;-68
2024/01/29 12:21:38;;;;;;;27.97;5.07;;;25.80;99.90;;;;;;5115503;28;20171;-69
2024/01/29 12:24:08;;;;;;;21.83;4.10;;;25.70;99.90;;;;;;5096388;28;20580;-69
2024/01/29 12:26:38;;;;;;;19.33;4.00;;;25.70;99.90;;;;;;5115088;28;20200;-69
2024/01/29 12:29:05;;;;;;;25.03;4.57;;;25.70;99.90;;;;;;5114761;28;20207;-69
2024/01/29 12:31:37;;;;;;;29.13;4.83;;;25.70;99.90;;;;;;5114859;28;20182;-68
2024/01/29 12:34:07;;;;;;;23.30;4.83;;;25.70;99.90;;;;;;5115130;28;20178;-69
2024/01/29 12:36:35;;;;;;;22.83;5.00;;;25.70;99.90;;;;;;5096262;28;20280;-69
2024/01/29 12:39:03;;;;;;;28.23;4.60;;;25.60;99.90;;;;;;5115225;28;20584;-68
2024/01/29 12:41:37;;;;;;;18.20;3.87;;;25.60;99.90;;;;;;5114696;28;20187;-69
2024/01/29 12:44:12;;;;;;;24.00;5.50;;;25.70;99.90;;;;;;5096888;28;20653;-69
2024/01/29 12:46:40;;;;;;;18.93;4.80;;;25.70;99.90;;;;;;5115163;28;20678;-68
2024/01/29 12:49:08;;;;;;;21.93;4.97;;;25.60;99.90;;;;;;5114880;28;20595;-69
2024/01/29 12:51:36;;;;;;;20.00;4.83;;;25.70;99.90;;;;;;5096156;28;20557;-70
2024/01/29 12:54:04;;;;;;;25.33;5.00;;;25.60;99.90;;;;;;5115007;28;20175;-68
2024/01/29 12:56:32;;;;;;;28.17;4.97;;;25.60;99.90;;;;;;5114653;28;20179;-68
2024/01/29 12:59:06;;;;;;;24.27;4.77;;;25.60;99.90;;;;;;5114226;28;20688;-68
2024/01/29 13:01:33;;;;;;;20.80;4.87;;;25.60;99.90;;;;;;5115096;28;20557;-68
2024/01/29 13:04:01;;;;;;;31.73;5.23;;;25.60;99.90;;;;;;5114421;28;20190;-68
2024/01/29 13:06:29;;;;;;;25.77;5.47;;;25.60;99.90;;;;;;5114329;28;20198;-68
2024/01/29 13:08:56;;;;;;;35.40;5.03;;;25.60;99.90;;;;;;5114477;28;20241;-68
2024/01/29 13:11:24;;;;;;;25.63;4.27;;;25.60;99.90;;;;;;5114749;28;20167;-68